Time;durP1;ratioP1;P1;durP2;ratioP2;P2;SDS_P1;SDS_P2;PMS_P1;PMS_P2;Temp;Humidity;BMP_temperature;BMP_pressure;BME280_temperature;BME280_humidity;BME280_pressure;Samples;Min_cycle;Max_cycle;Signal;HPM_P1;HPM_P2
2021/05/10 00:00:15;;;;;;;5.00;3.63;;;16.00;99.90;;;;;;5062442;28;20235;-65
2021/05/10 00:02:43;;;;;;;6.37;3.90;;;16.00;99.90;;;;;;5067004;28;20208;-65
2021/05/10 00:05:11;;;;;;;6.63;4.13;;;16.10;99.90;;;;;;5066467;28;20219;-65
2021/05/10 00:07:39;;;;;;;4.40;3.73;;;16.10;99.90;;;;;;5064025;28;20893;-65
2021/05/10 00:10:08;;;;;;;6.00;4.00;;;16.00;99.90;;;;;;5065124;28;20295;-65
2021/05/10 00:12:36;;;;;;;6.17;4.03;;;16.10;99.90;;;;;;5064622;28;20227;-65
2021/05/10 00:15:06;;;;;;;5.90;4.27;;;16.10;99.90;;;;;;5064736;28;20199;-65
2021/05/10 00:17:34;;;;;;;5.23;4.00;;;16.10;99.90;;;;;;5062938;28;20228;-65
2021/05/10 00:20:02;;;;;;;6.00;3.80;;;16.10;99.90;;;;;;5062233;28;20192;-64
2021/05/10 00:22:29;;;;;;;5.90;4.07;;;16.10;99.90;;;;;;5062756;28;20190;-65
2021/05/10 00:24:58;;;;;;;5.80;4.00;;;16.10;99.90;;;;;;5066277;28;20222;-64
2021/05/10 00:27:25;;;;;;;7.23;4.40;;;16.00;99.90;;;;;;5059509;28;20288;-65
2021/05/10 00:29:53;;;;;;;8.33;4.17;;;16.00;99.90;;;;;;5063685;28;20291;-64
2021/05/10 00:32:21;;;;;;;5.27;3.73;;;15.90;99.90;;;;;;5063876;28;20204;-65
2021/05/10 00:34:57;;;;;;;4.40;4.00;;;15.90;99.90;;;;;;5062363;28;20192;-65
2021/05/10 00:37:25;;;;;;;4.03;3.80;;;15.80;99.90;;;;;;5063865;28;20215;-64
2021/05/10 00:39:53;;;;;;;4.30;3.90;;;15.70;99.90;;;;;;5061653;28;20241;-65
2021/05/10 00:42:21;;;;;;;9.07;4.77;;;15.70;99.90;;;;;;5064556;28;20652;-65
2021/05/10 00:44:49;;;;;;;6.20;4.50;;;15.60;99.90;;;;;;5064141;28;20275;-65
2021/05/10 00:47:17;;;;;;;6.90;4.80;;;15.60;99.90;;;;;;5062159;28;20198;-65
2021/05/10 00:49:44;;;;;;;6.80;5.10;;;15.50;99.90;;;;;;5060565;28;20195;-65
2021/05/10 00:52:13;;;;;;;8.30;4.90;;;15.50;99.90;;;;;;5062282;28;21263;-65
2021/05/10 00:54:40;;;;;;;4.60;4.30;;;15.40;99.90;;;;;;5064830;28;20208;-65
2021/05/10 00:57:09;;;;;;;4.63;4.23;;;15.40;99.90;;;;;;5070539;28;20206;-64
2021/05/10 00:59:37;;;;;;;5.23;4.20;;;15.40;99.90;;;;;;5069656;28;20224;-65
2021/05/10 01:02:06;;;;;;;6.90;4.97;;;15.30;99.90;;;;;;5067566;28;20187;-65
2021/05/10 01:04:34;;;;;;;4.87;4.37;;;15.20;99.90;;;;;;5070861;28;20229;-65
2021/05/10 01:07:01;;;;;;;4.70;4.30;;;15.20;99.90;;;;;;5073607;28;20863;-65
2021/05/10 01:09:30;;;;;;;9.00;4.50;;;15.10;99.90;;;;;;5069464;28;20278;-64
2021/05/10 01:11:57;;;;;;;5.30;4.90;;;15.10;99.90;;;;;;5070394;28;20778;-64
2021/05/10 01:14:25;;;;;;;4.87;4.37;;;15.00;99.90;;;;;;5070033;28;20188;-64
2021/05/10 01:16:53;;;;;;;5.63;4.83;;;15.00;99.90;;;;;;5068883;28;20192;-65
2021/05/10 01:19:24;;;;;;;6.60;4.67;;;15.00;99.90;;;;;;5064686;28;20318;-65
2021/05/10 01:21:55;;;;;;;5.93;4.73;;;15.00;99.90;;;;;;5066086;28;20287;-64
2021/05/10 01:24:24;;;;;;;7.10;5.00;;;14.90;99.90;;;;;;5065373;28;20188;-64
2021/05/10 01:26:51;;;;;;;6.13;4.90;;;14.90;99.90;;;;;;5068636;28;20212;-65
2021/05/10 01:29:19;;;;;;;11.37;5.33;;;14.90;99.90;;;;;;5065860;28;20204;-64
2021/05/10 01:31:47;;;;;;;6.97;5.20;;;14.90;99.90;;;;;;5069406;28;20235;-65
2021/05/10 01:34:16;;;;;;;9.60;5.27;;;14.90;99.90;;;;;;5068249;28;20188;-64
2021/05/10 01:36:44;;;;;;;5.70;5.07;;;14.90;99.90;;;;;;5068545;28;20199;-64
2021/05/10 01:39:12;;;;;;;6.13;5.00;;;14.90;99.90;;;;;;5067202;28;20266;-64
2021/05/10 01:41:40;;;;;;;7.87;5.23;;;14.90;99.90;;;;;;5070189;28;20192;-64
2021/05/10 01:44:08;;;;;;;6.33;4.53;;;15.00;99.90;;;;;;5069375;28;20192;-64
2021/05/10 01:46:36;;;;;;;5.37;4.50;;;15.00;99.90;;;;;;5070604;28;20675;-65
2021/05/10 01:49:04;;;;;;;4.93;4.53;;;15.00;99.90;;;;;;5066221;28;20287;-64
2021/05/10 01:51:31;;;;;;;7.17;5.30;;;15.00;99.90;;;;;;5066918;28;20831;-64
2021/05/10 01:53:59;;;;;;;6.90;4.77;;;15.10;99.90;;;;;;5075310;28;20191;-64
2021/05/10 01:56:27;;;;;;;7.37;4.60;;;15.10;99.90;;;;;;5067036;28;20196;-64
2021/05/10 01:58:55;;;;;;;7.73;4.73;;;15.10;99.90;;;;;;5067327;28;20211;-65
2021/05/10 02:01:23;;;;;;;6.47;4.70;;;15.20;99.90;;;;;;5068443;28;20651;-64
2021/05/10 02:03:51;;;;;;;4.83;4.43;;;15.20;99.90;;;;;;5071874;28;20321;-65
2021/05/10 02:06:18;;;;;;;6.63;4.73;;;15.20;99.90;;;;;;5066999;28;20655;-64
2021/05/10 02:08:46;;;;;;;5.27;4.77;;;15.20;99.90;;;;;;5066523;28;20188;-65
2021/05/10 02:11:13;;;;;;;5.50;4.20;;;15.20;99.90;;;;;;5068799;28;20683;-64
2021/05/10 02:13:41;;;;;;;4.77;4.40;;;15.20;99.90;;;;;;5072074;28;20278;-64
2021/05/10 02:16:10;;;;;;;5.53;4.53;;;15.30;99.90;;;;;;5069774;28;20191;-64
2021/05/10 02:18:38;;;;;;;4.47;4.07;;;15.30;99.90;;;;;;5066769;28;20228;-64
2021/05/10 02:21:06;;;;;;;7.97;4.47;;;15.30;99.90;;;;;;5063929;28;20798;-64
2021/05/10 02:23:36;;;;;;;4.40;4.03;;;15.40;99.90;;;;;;5064210;28;20192;-64
2021/05/10 02:26:05;;;;;;;5.00;3.70;;;15.50;99.90;;;;;;5068694;28;20231;-64
2021/05/10 02:28:33;;;;;;;3.90;3.60;;;15.70;99.90;;;;;;5067482;28;20196;-64
2021/05/10 02:31:03;;;;;;;5.17;3.60;;;15.90;99.90;;;;;;5064879;28;20204;-64
2021/05/10 02:33:33;;;;;;;6.57;3.63;;;16.10;99.90;;;;;;5059257;28;20233;-64
2021/05/10 02:36:01;;;;;;;3.47;3.17;;;16.20;99.90;;;;;;5064830;28;20189;-65
2021/05/10 02:38:29;;;;;;;3.80;3.10;;;16.30;99.90;;;;;;5065223;28;20196;-65
2021/05/10 02:40:56;;;;;;;5.50;3.10;;;16.40;99.90;;;;;;5068120;28;20520;-64
2021/05/10 02:43:26;;;;;;;5.90;2.90;;;16.40;99.90;;;;;;5066599;28;20211;-65
2021/05/10 02:45:54;;;;;;;7.80;2.97;;;16.50;99.90;;;;;;5067982;28;20191;-64
2021/05/10 02:48:22;;;;;;;4.90;3.23;;;16.50;99.90;;;;;;5065439;28;20231;-64
2021/05/10 02:50:51;;;;;;;4.00;3.00;;;16.50;99.90;;;;;;5064231;28;20202;-65
2021/05/10 02:53:19;;;;;;;3.50;3.20;;;16.60;99.90;;;;;;5065183;28;20189;-64
2021/05/10 02:55:46;;;;;;;4.03;3.00;;;16.70;99.90;;;;;;5066350;28;20189;-64
2021/05/10 02:58:14;;;;;;;3.77;3.23;;;16.70;99.90;;;;;;5062554;28;20176;-64
2021/05/10 03:00:42;;;;;;;5.83;2.93;;;16.80;99.90;;;;;;5063768;28;20194;-64
2021/05/10 03:03:09;;;;;;;3.80;3.33;;;16.80;99.90;;;;;;5069140;28;20176;-64
2021/05/10 03:05:39;;;;;;;8.83;3.13;;;16.70;99.90;;;;;;5066201;28;20188;-65
2021/05/10 03:08:07;;;;;;;8.80;3.87;;;16.60;99.90;;;;;;5067300;28;20188;-65
2021/05/10 03:10:35;;;;;;;7.20;4.33;;;16.50;99.90;;;;;;5066383;28;20219;-66
2021/05/10 03:13:03;;;;;;;5.50;3.17;;;16.20;99.90;;;;;;5064187;28;20204;-65
2021/05/10 03:15:31;;;;;;;3.30;2.30;;;15.70;99.90;;;;;;5067804;28;20192;-66
2021/05/10 03:18:01;;;;;;;2.33;2.23;;;15.30;99.90;;;;;;5067081;28;20320;-66
2021/05/10 03:20:34;;;;;;;2.93;2.23;;;15.00;99.90;;;;;;5059811;28;20193;-65
2021/05/10 03:23:02;;;;;;;2.67;2.53;;;14.80;99.90;;;;;;5061665;28;20189;-65
2021/05/10 03:25:31;;;;;;;3.90;2.73;;;14.70;99.90;;;;;;5066178;28;20457;-66
2021/05/10 03:27:59;;;;;;;3.33;3.00;;;14.60;99.90;;;;;;5066300;28;20184;-65
2021/05/10 03:30:26;;;;;;;2.97;2.83;;;14.50;99.90;;;;;;5064073;28;20195;-65
2021/05/10 03:32:54;;;;;;;2.87;2.67;;;14.50;99.90;;;;;;5066550;28;20574;-65
2021/05/10 03:35:22;;;;;;;2.67;2.47;;;14.40;99.90;;;;;;5064769;28;20192;-65
2021/05/10 03:37:50;;;;;;;3.10;2.80;;;14.40;99.90;;;;;;5065600;28;20246;-66
2021/05/10 03:40:20;;;;;;;3.10;2.90;;;14.30;99.90;;;;;;5065129;28;20192;-66
2021/05/10 03:42:48;;;;;;;3.40;3.10;;;14.30;99.90;;;;;;5065236;28;20658;-66
2021/05/10 03:45:17;;;;;;;3.70;3.40;;;14.20;99.90;;;;;;5065891;28;20188;-66
2021/05/10 03:47:45;;;;;;;3.73;3.40;;;14.20;99.90;;;;;;5067256;28;20234;-65
2021/05/10 03:50:14;;;;;;;5.83;3.30;;;14.20;99.90;;;;;;5063053;28;20184;-65
2021/05/10 03:52:44;;;;;;;4.07;3.53;;;14.20;99.90;;;;;;5062251;28;20336;-65
2021/05/10 03:55:14;;;;;;;5.10;3.20;;;14.20;99.90;;;;;;5068152;28;20192;-65
2021/05/10 03:57:42;;;;;;;5.10;3.00;;;14.20;99.90;;;;;;5067888;28;20195;-65
2021/05/10 04:00:13;;;;;;;3.63;2.47;;;14.20;99.90;;;;;;5064365;28;20199;-65
2021/05/10 04:02:42;;;;;;;3.20;2.50;;;14.20;99.90;;;;;;5060928;28;20187;-65
2021/05/10 04:05:22;;;;;;;3.63;2.47;;;14.10;99.90;;;;;;5062699;28;20196;-65
2021/05/10 04:07:54;;;;;;;2.60;2.40;;;14.10;99.90;;;;;;5065808;28;20194;-65
2021/05/10 04:16:00;;;;;;;3.10;2.63;;;14.10;99.90;;;;;;5065800;28;20196;-65
2021/05/10 04:18:28;;;;;;;3.30;3.10;;;14.10;99.90;;;;;;5065369;28;20235;-65
2021/05/10 04:20:55;;;;;;;4.40;3.33;;;14.10;99.90;;;;;;5058401;28;20201;-65
2021/05/10 04:23:24;;;;;;;4.67;3.77;;;14.00;99.90;;;;;;5061076;28;20282;-65
2021/05/10 04:25:53;;;;;;;9.90;4.00;;;14.00;99.90;;;;;;5065179;28;20224;-65
2021/05/10 04:28:22;;;;;;;4.17;3.93;;;14.00;99.90;;;;;;5068038;28;20206;-65
2021/05/10 04:30:53;;;;;;;5.30;4.33;;;14.00;99.90;;;;;;5063663;28;20246;-65
2021/05/10 04:33:28;;;;;;;4.87;3.90;;;14.00;99.90;;;;;;5062764;28;20691;-65
2021/05/10 04:35:56;;;;;;;5.50;4.23;;;14.00;99.90;;;;;;5061638;28;20797;-65
2021/05/10 04:38:25;;;;;;;6.13;4.63;;;14.10;99.90;;;;;;5066067;28;20202;-65
2021/05/10 04:40:54;;;;;;;5.57;5.07;;;14.10;99.90;;;;;;5064428;28;20199;-65
2021/05/10 04:43:22;;;;;;;8.00;5.43;;;14.10;99.90;;;;;;5064298;28;20659;-65
2021/05/10 04:45:50;;;;;;;7.33;5.57;;;14.20;99.90;;;;;;5065630;28;20226;-65
2021/05/10 04:48:17;;;;;;;8.77;5.17;;;14.30;99.90;;;;;;5067919;28;20207;-64
2021/05/10 04:50:46;;;;;;;6.33;5.30;;;14.30;99.90;;;;;;5068004;28;20306;-64
2021/05/10 04:53:14;;;;;;;7.17;4.97;;;14.30;99.90;;;;;;5066348;28;20801;-64
2021/05/10 04:55:42;;;;;;;5.77;5.27;;;14.40;99.90;;;;;;5062650;28;20193;-65
2021/05/10 04:58:09;;;;;;;4.80;4.00;;;14.40;99.90;;;;;;5065831;28;20199;-65
2021/05/10 05:00:37;;;;;;;3.43;3.20;;;14.40;99.90;;;;;;5067772;28;20198;-64
2021/05/10 05:03:05;;;;;;;3.73;3.43;;;14.40;99.90;;;;;;5066383;28;20249;-64
2021/05/10 05:05:33;;;;;;;3.00;2.90;;;14.50;99.90;;;;;;5061115;28;20184;-63
2021/05/10 05:08:01;;;;;;;3.33;3.13;;;14.50;99.90;;;;;;5064520;28;20196;-64
2021/05/10 05:10:28;;;;;;;3.70;3.10;;;14.60;99.90;;;;;;5064598;28;20203;-64
2021/05/10 05:12:56;;;;;;;3.03;2.80;;;14.60;99.90;;;;;;5066672;28;20212;-64
2021/05/10 05:15:24;;;;;;;3.43;3.20;;;14.50;99.90;;;;;;5058826;28;20214;-64
2021/05/10 05:17:51;;;;;;;3.27;2.97;;;14.50;99.90;;;;;;5062115;28;20220;-64
2021/05/10 05:20:19;;;;;;;3.60;3.37;;;14.40;99.90;;;;;;5059581;28;20191;-64
2021/05/10 05:22:47;;;;;;;6.83;3.23;;;14.40;99.90;;;;;;5066749;28;20196;-64
2021/05/10 05:25:15;;;;;;;5.17;3.30;;;14.30;99.90;;;;;;5068812;28;20188;-64
2021/05/10 05:27:43;;;;;;;5.77;3.30;;;14.30;99.90;;;;;;5067316;28;20192;-64
2021/05/10 05:30:12;;;;;;;3.50;3.23;;;14.30;99.90;;;;;;5064915;28;20188;-64
2021/05/10 05:32:40;;;;;;;3.90;3.70;;;14.30;99.90;;;;;;5060015;28;20849;-64
2021/05/10 05:35:09;;;;;;;3.53;3.23;;;14.30;99.90;;;;;;5059687;28;20189;-64
2021/05/10 05:37:37;;;;;;;3.20;3.00;;;14.30;99.90;;;;;;5065136;28;20188;-64
2021/05/10 05:40:05;;;;;;;3.60;3.40;;;14.30;99.90;;;;;;5057833;28;20196;-65
2021/05/10 05:42:34;;;;;;;3.57;3.30;;;14.20;99.90;;;;;;5069312;28;20192;-64
2021/05/10 05:45:03;;;;;;;3.40;3.20;;;14.30;99.90;;;;;;5068938;28;20656;-64
2021/05/10 05:47:30;;;;;;;5.17;3.63;;;14.30;99.90;;;;;;5073477;28;20893;-64
2021/05/10 05:49:59;;;;;;;3.63;3.43;;;14.30;99.90;;;;;;5067904;28;20200;-64
2021/05/10 05:52:26;;;;;;;3.50;3.37;;;14.30;99.90;;;;;;5067251;28;20214;-64
2021/05/10 05:54:56;;;;;;;3.47;3.27;;;14.30;99.90;;;;;;5063103;28;20188;-64
2021/05/10 05:57:24;;;;;;;3.47;3.17;;;14.30;99.90;;;;;;5069926;28;20216;-64
2021/05/10 05:59:52;;;;;;;3.50;3.20;;;14.30;99.90;;;;;;5061018;28;20196;-64
2021/05/10 06:02:20;;;;;;;2.80;2.70;;;14.30;99.90;;;;;;5064995;28;20189;-64
2021/05/10 06:04:49;;;;;;;4.90;2.80;;;14.40;99.90;;;;;;5063738;28;20229;-64
2021/05/10 06:07:41;;;;;;;3.30;2.70;;;14.40;99.90;;;;;;5065120;28;20188;-64
2021/05/10 06:10:11;;;;;;;3.10;2.90;;;14.40;99.90;;;;;;5066012;28;20215;-64
2021/05/10 06:12:38;;;;;;;5.33;4.47;;;14.40;99.90;;;;;;5067123;28;20236;-64
2021/05/10 06:15:09;;;;;;;2.87;2.77;;;14.40;99.90;;;;;;5070274;28;20765;-64
2021/05/10 06:17:37;;;;;;;3.40;3.30;;;14.40;99.90;;;;;;5068957;28;20222;-64
2021/05/10 06:20:06;;;;;;;3.07;2.87;;;14.40;99.90;;;;;;5068028;28;20675;-64
2021/05/10 06:22:34;;;;;;;4.30;3.30;;;14.40;99.90;;;;;;5070062;28;20199;-64
2021/05/10 06:25:02;;;;;;;3.20;3.10;;;14.40;99.90;;;;;;5067370;28;20196;-64
2021/05/10 06:27:29;;;;;;;3.70;3.40;;;14.40;99.90;;;;;;5063252;28;20269;-64
2021/05/10 06:29:58;;;;;;;3.23;2.93;;;14.40;99.90;;;;;;5063571;28;20287;-65
2021/05/10 06:32:27;;;;;;;3.90;3.47;;;14.50;99.90;;;;;;5069045;28;20216;-64
2021/05/10 06:34:56;;;;;;;3.13;2.93;;;14.60;99.90;;;;;;5066260;28;20188;-64
2021/05/10 06:37:28;;;;;;;5.17;3.40;;;14.70;99.90;;;;;;5060670;28;20298;-64
2021/05/10 06:39:57;;;;;;;3.37;3.20;;;14.80;99.90;;;;;;5067676;28;20188;-64
2021/05/10 06:42:25;;;;;;;3.30;3.13;;;14.80;99.90;;;;;;5067158;28;20214;-64
2021/05/10 06:44:54;;;;;;;3.10;2.90;;;14.80;99.90;;;;;;5065938;28;20192;-64
2021/05/10 06:47:22;;;;;;;3.20;3.07;;;14.80;99.90;;;;;;5057597;28;20199;-64
2021/05/10 06:49:51;;;;;;;3.00;2.90;;;14.90;99.90;;;;;;5067193;28;20196;-64
2021/05/10 06:52:18;;;;;;;3.17;2.90;;;14.90;99.90;;;;;;5068300;28;20204;-64
2021/05/10 06:54:46;;;;;;;3.33;3.13;;;14.90;99.90;;;;;;5070504;28;20195;-64
2021/05/10 06:57:13;;;;;;;3.17;3.07;;;14.90;99.90;;;;;;5072406;28;20185;-64
2021/05/10 06:59:42;;;;;;;3.33;3.13;;;14.90;99.90;;;;;;5065830;28;20188;-64
2021/05/10 07:02:09;;;;;;;3.67;3.07;;;14.90;99.90;;;;;;5066536;28;20218;-64
2021/05/10 07:04:37;;;;;;;3.07;2.83;;;15.10;99.90;;;;;;5062386;28;20329;-64
2021/05/10 07:07:05;;;;;;;4.17;3.23;;;15.10;99.90;;;;;;5066639;28;20184;-64
2021/05/10 07:09:33;;;;;;;3.77;3.10;;;15.20;99.90;;;;;;5081045;28;20187;-65
2021/05/10 07:12:01;;;;;;;4.07;3.67;;;15.20;99.90;;;;;;5072499;28;20208;-64
2021/05/10 07:14:28;;;;;;;3.43;3.20;;;15.20;99.90;;;;;;5068527;28;20207;-64
2021/05/10 07:16:57;;;;;;;3.43;3.23;;;15.20;99.90;;;;;;5068115;28;20730;-65
2021/05/10 07:19:26;;;;;;;6.50;3.90;;;15.30;99.90;;;;;;5065595;28;20219;-64
2021/05/10 07:21:53;;;;;;;3.77;3.47;;;15.30;99.90;;;;;;5068947;28;20203;-65
2021/05/10 07:24:22;;;;;;;4.27;3.97;;;15.30;99.90;;;;;;5065107;28;20194;-64
2021/05/10 07:26:50;;;;;;;4.70;4.30;;;15.30;99.90;;;;;;5065187;28;20226;-64
2021/05/10 07:29:18;;;;;;;3.73;3.43;;;15.20;99.90;;;;;;5068355;28;20196;-64
2021/05/10 07:31:48;;;;;;;5.20;4.40;;;15.20;99.90;;;;;;5065668;28;20195;-64
2021/05/10 07:34:15;;;;;;;5.10;4.20;;;15.30;99.90;;;;;;5064917;28;20780;-64
2021/05/10 07:36:43;;;;;;;4.63;4.23;;;15.40;99.90;;;;;;5066208;28;20199;-64
2021/05/10 07:39:11;;;;;;;4.70;4.20;;;15.40;99.90;;;;;;5065337;28;20288;-65
2021/05/10 07:41:40;;;;;;;4.27;3.97;;;15.60;99.90;;;;;;5065040;28;20188;-65
2021/05/10 07:44:07;;;;;;;4.80;3.83;;;15.70;99.90;;;;;;5064002;28;20716;-64
2021/05/10 07:46:36;;;;;;;3.90;3.70;;;15.90;99.90;;;;;;5064057;28;20192;-64
2021/05/10 07:49:04;;;;;;;3.53;3.33;;;16.30;99.90;;;;;;5062829;28;20866;-64
2021/05/10 07:51:31;;;;;;;3.50;3.30;;;16.60;99.90;;;;;;5063838;28;20184;-65
2021/05/10 07:53:59;;;;;;;3.23;3.00;;;16.70;99.90;;;;;;5069230;28;20207;-64
2021/05/10 07:56:27;;;;;;;3.40;3.17;;;16.60;99.90;;;;;;5077919;28;20713;-65
2021/05/10 07:58:58;;;;;;;3.97;3.07;;;16.40;99.90;;;;;;5064383;28;20650;-65
2021/05/10 08:01:25;;;;;;;2.97;2.70;;;16.30;99.90;;;;;;5065512;28;20203;-65
2021/05/10 08:03:53;;;;;;;5.07;3.03;;;16.30;99.90;;;;;;5067010;28;20282;-64
2021/05/10 08:06:20;;;;;;;3.23;2.93;;;16.10;99.90;;;;;;5067056;28;20184;-65
2021/05/10 08:08:48;;;;;;;4.07;3.10;;;16.00;99.90;;;;;;5069115;28;20254;-64
2021/05/10 08:11:18;;;;;;;6.00;2.93;;;15.90;99.90;;;;;;5085983;28;20191;-65
2021/05/10 08:13:45;;;;;;;3.60;2.90;;;15.70;99.90;;;;;;5067110;28;20745;-64
2021/05/10 08:16:14;;;;;;;4.57;3.20;;;15.40;99.90;;;;;;5066270;28;20206;-64
2021/05/10 08:18:42;;;;;;;3.70;2.80;;;15.20;99.90;;;;;;5066086;28;20239;-64
2021/05/10 08:21:10;;;;;;;2.93;2.73;;;15.10;99.90;;;;;;5066346;28;20195;-64
2021/05/10 08:23:38;;;;;;;3.50;3.20;;;14.90;99.90;;;;;;5061682;28;20191;-65
2021/05/10 08:26:09;;;;;;;4.20;2.77;;;14.80;99.90;;;;;;5067363;28;20283;-64
2021/05/10 08:28:36;;;;;;;3.00;2.80;;;14.80;99.90;;;;;;5066352;28;20191;-64
2021/05/10 08:31:04;;;;;;;3.40;3.10;;;14.70;99.90;;;;;;5064976;28;20241;-65
2021/05/10 08:33:33;;;;;;;4.03;2.70;;;14.70;99.90;;;;;;5067609;28;20200;-64
2021/05/10 08:36:00;;;;;;;2.90;2.57;;;14.60;99.90;;;;;;5071356;28;20672;-64
2021/05/10 08:38:28;;;;;;;3.63;2.50;;;14.50;99.90;;;;;;5065558;28;20702;-64
2021/05/10 08:40:55;;;;;;;3.10;2.90;;;14.60;99.90;;;;;;5071587;28;20189;-64
2021/05/10 08:43:26;;;;;;;4.30;3.07;;;14.50;99.90;;;;;;5065811;28;20193;-64
2021/05/10 08:45:55;;;;;;;3.00;2.80;;;14.50;99.90;;;;;;5066028;28;20214;-64
2021/05/10 08:48:23;;;;;;;3.00;2.73;;;14.50;99.90;;;;;;5066983;28;20188;-64
2021/05/10 08:50:54;;;;;;;4.57;2.90;;;14.60;99.90;;;;;;5065654;28;20196;-64
2021/05/10 08:53:35;;;;;;;3.30;2.97;;;14.70;99.90;;;;;;5065815;28;20203;-64
2021/05/10 08:56:03;;;;;;;5.63;3.10;;;14.80;99.90;;;;;;5063926;28;20199;-65
2021/05/10 08:58:37;;;;;;;4.20;3.07;;;14.80;99.90;;;;;;5064159;28;20188;-65
2021/05/10 09:01:05;;;;;;;5.47;3.03;;;14.80;99.90;;;;;;5062273;28;20226;-65
2021/05/10 09:03:39;;;;;;;3.77;3.30;;;14.80;99.90;;;;;;5067177;28;20272;-64
2021/05/10 09:06:12;;;;;;;7.57;3.27;;;14.80;99.90;;;;;;5065448;28;20224;-64
2021/05/10 09:08:41;;;;;;;3.70;2.73;;;14.90;99.90;;;;;;5064065;28;20212;-64
2021/05/10 09:11:10;;;;;;;7.60;2.90;;;15.00;99.90;;;;;;5079085;28;20195;-64
2021/05/10 09:13:41;;;;;;;4.27;2.40;;;15.10;99.90;;;;;;5071767;28;20757;-64
2021/05/10 09:16:09;;;;;;;3.83;2.33;;;15.00;99.90;;;;;;5067563;28;20283;-64
2021/05/10 09:18:38;;;;;;;6.43;3.07;;;15.10;99.90;;;;;;5068402;28;20224;-64
2021/05/10 09:21:12;;;;;;;4.10;2.50;;;15.10;99.90;;;;;;5069538;28;20219;-64
2021/05/10 09:24:00;;;;;;;3.33;2.33;;;15.20;99.90;;;;;;5069519;28;20198;-64
2021/05/10 09:26:30;;;;;;;4.63;2.00;;;15.40;99.90;;;;;;5070092;28;20683;-64
2021/05/10 09:28:58;;;;;;;7.53;2.40;;;15.60;99.90;;;;;;5069994;28;20218;-64
2021/05/10 09:31:28;;;;;;;4.83;2.30;;;15.90;99.90;;;;;;5068889;28;20376;-64
2021/05/10 09:33:57;;;;;;;4.30;1.90;;;16.00;99.90;;;;;;5069686;28;20210;-64
2021/05/10 09:36:36;;;;;;;6.33;2.47;;;16.30;99.90;;;;;;5069576;28;20196;-64
2021/05/10 09:39:06;;;;;;;5.10;1.83;;;16.60;99.90;;;;;;5066752;28;20196;-64
2021/05/10 09:41:59;;;;;;;4.87;2.07;;;16.80;99.90;;;;;;5068823;28;20196;-65
2021/05/10 09:44:39;;;;;;;3.30;2.20;;;17.00;99.90;;;;;;5071096;28;20191;-65
2021/05/10 09:47:07;;;;;;;5.30;2.40;;;17.20;99.90;;;;;;5068280;28;20252;-65
2021/05/10 09:49:44;;;;;;;4.60;2.40;;;17.40;99.90;;;;;;5073100;28;20196;-65
2021/05/10 09:52:22;;;;;;;5.13;2.30;;;18.00;99.90;;;;;;5069397;28;20192;-65
2021/05/10 09:54:59;;;;;;;5.90;2.27;;;19.50;99.90;;;;;;5069415;28;20278;-65
2021/05/10 09:57:29;;;;;;;3.00;2.10;;;21.00;99.90;;;;;;5078774;28;20218;-66
2021/05/10 10:00:19;;;;;;;3.03;1.60;;;21.60;99.90;;;;;;5066513;28;20191;-65
2021/05/10 10:02:47;;;;;;;3.43;1.90;;;22.50;99.90;;;;;;5061020;28;20203;-66
2021/05/10 10:05:19;;;;;;;6.43;1.83;;;23.00;99.90;;;;;;5065922;28;20191;-65
2021/05/10 10:07:47;;;;;;;4.17;1.90;;;23.40;99.90;;;;;;5063504;28;20190;-65
2021/05/10 10:10:16;;;;;;;2.67;1.20;;;22.80;99.90;;;;;;5069130;28;20285;-65
2021/05/10 10:12:44;;;;;;;5.93;1.73;;;22.90;99.90;;;;;;5066468;28;20931;-65
2021/05/10 10:15:13;;;;;;;3.93;1.90;;;22.20;99.90;;;;;;5067408;28;20197;-65
2021/05/10 10:17:41;;;;;;;1.80;1.70;;;21.30;99.90;;;;;;5067028;28;20272;-65
2021/05/10 10:20:10;;;;;;;3.53;1.70;;;21.60;99.90;;;;;;5070110;28;20198;-65
2021/05/10 10:22:38;;;;;;;2.20;1.47;;;21.70;99.90;;;;;;5067763;28;20188;-65
2021/05/10 10:25:09;;;;;;;2.70;1.40;;;21.20;99.90;;;;;;5069676;28;20613;-65
2021/05/10 10:27:58;;;;;;;3.10;1.47;;;20.10;99.90;;;;;;5064958;28;20195;-65
2021/05/10 10:30:32;;;;;;;2.43;1.50;;;19.10;99.90;;;;;;5066720;28;20658;-65
2021/05/10 10:33:05;;;;;;;1.87;1.63;;;18.20;99.90;;;;;;5070994;28;20314;-65
2021/05/10 10:35:37;;;;;;;4.97;2.13;;;17.80;99.90;;;;;;5064811;28;20471;-65
2021/05/10 10:38:07;;;;;;;5.97;1.67;;;17.60;99.90;;;;;;5066803;28;20759;-65
2021/05/10 10:40:35;;;;;;;3.90;1.90;;;17.50;99.90;;;;;;5060240;28;20188;-65
2021/05/10 10:43:25;;;;;;;3.77;2.03;;;17.40;99.90;;;;;;5063634;28;20205;-65
2021/05/10 10:46:28;;;;;;;2.53;1.70;;;17.40;99.90;;;;;;5064245;28;20255;-65
2021/05/10 10:48:59;;;;;;;5.27;1.80;;;18.20;99.90;;;;;;5062761;28;20193;-65
2021/05/10 10:51:49;;;;;;;1.87;1.60;;;18.70;99.90;;;;;;5059425;28;20341;-65
2021/05/10 10:54:20;;;;;;;4.90;1.67;;;18.60;99.90;;;;;;5066727;28;20204;-65
2021/05/10 10:56:54;;;;;;;5.50;1.80;;;18.60;99.90;;;;;;5069754;28;20277;-65
2021/05/10 10:59:27;;;;;;;1.87;1.53;;;19.40;99.90;;;;;;5063726;28;20838;-65
2021/05/10 11:01:55;;;;;;;5.20;1.90;;;19.50;99.90;;;;;;5061689;28;20207;-65
2021/05/10 11:04:25;;;;;;;3.83;1.90;;;19.80;99.90;;;;;;5063130;28;20185;-64
2021/05/10 11:06:53;;;;;;;4.13;1.90;;;19.70;99.90;;;;;;5070175;28;20203;-65
2021/05/10 11:09:50;;;;;;;6.00;1.80;;;19.50;99.90;;;;;;5060952;28;20788;-65
2021/05/10 11:12:50;;;;;;;4.97;1.73;;;18.90;99.90;;;;;;5065166;28;20290;-65
2021/05/10 11:15:47;;;;;;;5.40;1.67;;;18.60;99.90;;;;;;5069151;28;20196;-65
2021/05/10 11:18:53;;;;;;;2.73;1.60;;;18.30;99.90;;;;;;5072022;28;20231;-64
2021/05/10 11:21:40;;;;;;;6.83;1.90;;;18.10;99.90;;;;;;5065666;28;20193;-65
2021/05/10 11:24:13;;;;;;;4.47;1.90;;;18.00;99.90;;;;;;5064051;28;20186;-65
2021/05/10 11:26:44;;;;;;;4.93;1.70;;;18.30;99.90;;;;;;5071512;28;20188;-65
2021/05/10 11:29:41;;;;;;;7.53;1.77;;;19.00;99.90;;;;;;5068298;28;20192;-65
2021/05/10 11:32:32;;;;;;;3.73;1.80;;;19.80;99.90;;;;;;5065951;28;20678;-65
2021/05/10 11:35:24;;;;;;;8.73;2.00;;;19.30;99.90;;;;;;5066103;28;20191;-64
2021/05/10 11:38:07;;;;;;;4.70;1.60;;;18.70;99.90;;;;;;5064723;28;20200;-65
2021/05/10 11:40:38;;;;;;;3.80;1.83;;;18.40;99.90;;;;;;5065075;28;20680;-65
2021/05/10 11:43:19;;;;;;;7.97;2.10;;;18.70;99.90;;;;;;5064958;28;20562;-65
2021/05/10 11:45:49;;;;;;;5.80;1.67;;;19.70;99.90;;;;;;5066140;28;20192;-65
2021/05/10 11:48:37;;;;;;;5.93;2.10;;;20.30;99.90;;;;;;5066108;28;20199;-64
2021/05/10 11:51:20;;;;;;;6.33;2.07;;;20.20;99.90;;;;;;5062932;28;20743;-65
2021/05/10 11:53:55;;;;;;;3.20;1.60;;;20.00;99.90;;;;;;5063877;28;20216;-65
2021/05/10 11:56:27;;;;;;;5.83;2.17;;;19.50;99.90;;;;;;5063073;28;20187;-65
2021/05/10 11:58:59;;;;;;;7.10;1.90;;;19.30;99.90;;;;;;5065703;28;20195;-65
2021/05/10 12:01:39;;;;;;;2.73;1.60;;;19.50;99.90;;;;;;5056309;28;20188;-65
2021/05/10 12:04:21;;;;;;;4.37;2.10;;;19.90;99.90;;;;;;5069562;28;20187;-64
2021/05/10 12:06:51;;;;;;;7.60;1.60;;;19.60;99.90;;;;;;5066076;28;20224;-65
2021/05/10 12:09:32;;;;;;;4.20;2.00;;;19.80;99.90;;;;;;5067574;28;20231;-65
2021/05/10 12:12:01;;;;;;;3.57;1.57;;;20.00;99.90;;;;;;5063856;28;20284;-64
2021/05/10 12:14:28;;;;;;;5.03;2.00;;;19.90;99.90;;;;;;5072106;28;20273;-64
2021/05/10 12:17:05;;;;;;;5.77;2.07;;;20.10;99.90;;;;;;5067490;28;20249;-64
2021/05/10 12:19:54;;;;;;;5.00;1.80;;;20.30;99.90;;;;;;5066909;28;20231;-65
2021/05/10 12:22:23;;;;;;;5.50;1.80;;;20.30;99.90;;;;;;5058360;28;20203;-64
2021/05/10 12:25:18;;;;;;;6.20;1.67;;;20.20;99.90;;;;;;5066849;28;20188;-64
2021/05/10 12:27:58;;;;;;;5.93;1.70;;;20.40;99.90;;;;;;5066021;28;20188;-65
2021/05/10 12:30:30;;;;;;;3.13;1.80;;;20.70;99.90;;;;;;5062220;28;20210;-65
2021/05/10 12:33:01;;;;;;;6.27;1.80;;;20.70;99.90;;;;;;5067984;28;20215;-65
2021/05/10 12:35:30;;;;;;;3.50;1.50;;;20.90;99.90;;;;;;5068543;28;20278;-65
2021/05/10 12:38:00;;;;;;;2.20;1.30;;;20.80;99.90;;;;;;5066106;28;20578;-64
2021/05/10 12:40:29;;;;;;;2.60;1.57;;;20.70;99.90;;;;;;5076037;28;20184;-64
2021/05/10 12:43:08;;;;;;;5.33;1.60;;;20.60;99.90;;;;;;5067897;28;20192;-64
2021/05/10 12:45:38;;;;;;;5.83;1.70;;;20.50;99.90;;;;;;5063916;28;20615;-65
2021/05/10 12:48:21;;;;;;;5.40;1.90;;;20.50;99.90;;;;;;5066040;28;20661;-64
2021/05/10 12:50:50;;;;;;;3.40;1.67;;;20.30;99.90;;;;;;5065814;28;20265;-65
2021/05/10 12:53:34;;;;;;;4.60;2.00;;;20.40;99.90;;;;;;5064091;28;20269;-64
2021/05/10 12:56:04;;;;;;;3.13;1.70;;;20.40;99.90;;;;;;5064493;28;20285;-64
2021/05/10 12:58:36;;;;;;;2.77;1.80;;;20.10;99.90;;;;;;5065642;28;20194;-65
2021/05/10 13:01:13;;;;;;;4.10;1.80;;;19.90;99.90;;;;;;5066941;28;20703;-64
2021/05/10 13:03:42;;;;;;;3.30;1.60;;;19.90;99.90;;;;;;5064902;28;20642;-65
2021/05/10 13:06:15;;;;;;;6.03;1.60;;;20.00;99.90;;;;;;5067256;28;20203;-65
2021/05/10 13:08:47;;;;;;;4.87;1.80;;;20.10;99.90;;;;;;5067955;28;20199;-65
2021/05/10 13:11:18;;;;;;;5.07;1.80;;;20.10;99.90;;;;;;5065393;28;20184;-65